Joseph F. Morrison — WDE4209 — position and weather

sailwx.info

Track history (hours):
 
Tides and Currents Weather Stations Pressure Air Temp Water Temp Dewpoint Dewpoint Depression Visibility Wind Speed Wind Dir Waves Ship Positions

Joseph F. Morrison

Owner: Blessey Enterprises, Inc., harahan, LA. More information available from US FCC via Universal Licensing System and Coast Guard Vessel Documentation Center.

Last reported at 2017-Oct-15 20:40 UTC. Time now 2017-Oct-17 03:55 UTC.
Position N 29°32' W 094°54'.

Length 84 m; draft 3 m.

Type: Towing. MMSI: 367350190.

Date/timePositionNaut miles runAvg speedWind from/ knotsBaromVisibWave heightAir tempDewpointWater temp
2017-Oct-15 20:40N 29°32' W 094°54'1 7.6
2017-Oct-15 20:30N 29°33' W 094°54'4 7.5
2017-Oct-15 20:01N 29°36' W 094°57'4 7.6
2017-Oct-15 19:30N 29°39' W 094°58'4 7.4
2017-Oct-15 19:00N 29°42' W 095°01'3 6.6
2017-Oct-15 18:30N 29°45' W 095°04'2 0.1
2017-Oct-14 13:13N 29°46' W 095°05'0 0.0
2017-Oct-14 13:00N 29°46' W 095°05'0 0.0
2017-Oct-14 12:30N 29°46' W 095°05'0 0.0
2017-Oct-14 12:00N 29°46' W 095°05'0 0.0
2017-Oct-14 11:28N 29°46' W 095°05'0 0.0
2017-Oct-14 11:00N 29°46' W 095°05'0 0.0
2017-Oct-14 10:19N 29°46' W 095°05'0 0.0
2017-Oct-14 09:58N 29°46' W 095°05'0 0.0
2017-Oct-14 09:30N 29°46' W 095°05'0 0.0
2017-Oct-14 08:59N 29°46' W 095°05'0 0.0
2017-Oct-14 08:27N 29°46' W 095°05'0 0.0
2017-Oct-14 07:46N 29°46' W 095°05'0 0.0
2017-Oct-14 07:29N 29°46' W 095°05'0 0.0
2017-Oct-14 06:57N 29°46' W 095°05'0 0.0
2017-Oct-14 06:29N 29°46' W 095°05'0 0.0
2017-Oct-14 06:00N 29°46' W 095°05'0 0.0
2017-Oct-14 05:29N 29°46' W 095°05'0 0.0
2017-Oct-14 05:00N 29°46' W 095°05'0 0.0
2017-Oct-14 03:52N 29°46' W 095°05'4 0.1
2017-Oct-12 15:57N 29°44' W 095°08'0 0.5
2017-Oct-12 15:30N 29°44' W 095°08'0 0.0
2017-Oct-12 15:00N 29°44' W 095°08'0 0.0
2017-Oct-12 14:31N 29°44' W 095°08'0 0.0
2017-Oct-12 13:59N 29°44' W 095°08'0 0.0
2017-Oct-12 13:31N 29°44' W 095°08'0 0.0
2017-Oct-12 13:00N 29°44' W 095°08'0 0.0
2017-Oct-12 12:30N 29°44' W 095°08'0 0.0
2017-Oct-12 12:00N 29°44' W 095°08'0 0.0
2017-Oct-12 11:30N 29°44' W 095°08'0 0.0
2017-Oct-12 11:00N 29°44' W 095°08'0 0.0
2017-Oct-12 10:30N 29°44' W 095°08'0 0.0
2017-Oct-12 10:00N 29°44' W 095°08'0 0.0
2017-Oct-12 09:29N 29°44' W 095°08'0 0.0
2017-Oct-12 09:00N 29°44' W 095°08'0 0.0
2017-Oct-12 08:31N 29°44' W 095°08'0 0.0
2017-Oct-12 08:00N 29°44' W 095°08'0 0.0
2017-Oct-12 07:30N 29°44' W 095°08'0 0.0
2017-Oct-12 07:00N 29°44' W 095°08'0 0.0
2017-Oct-12 06:31N 29°44' W 095°08'0 0.0
2017-Oct-12 06:00N 29°44' W 095°08'0 0.0
2017-Oct-12 05:30N 29°44' W 095°08'0 0.0
2017-Oct-12 05:00N 29°44' W 095°08'0 0.0
2017-Oct-12 04:30N 29°44' W 095°08'0 0.0
2017-Oct-12 04:00N 29°44' W 095°08'0 0.0
2017-Oct-12 03:30N 29°44' W 095°08'0 0.0
2017-Oct-12 03:01N 29°44' W 095°08'0 0.0
2017-Oct-12 02:30N 29°44' W 095°08'0 0.0
2017-Oct-12 02:00N 29°44' W 095°08'0 0.0
2017-Oct-12 01:31N 29°44' W 095°08'0 0.0
2017-Oct-12 01:01N 29°44' W 095°08'0 0.0
2017-Oct-12 00:31N 29°44' W 095°08'0 0.0
2017-Oct-12 00:01N 29°44' W 095°08'0 0.0
2017-Oct-11 23:30N 29°44' W 095°08'0 0.0
2017-Oct-11 23:00N 29°44' W 095°08'0 0.0
2017-Oct-11 22:30N 29°44' W 095°08'0 0.0
2017-Oct-11 22:00N 29°44' W 095°08'0 0.0
2017-Oct-11 21:30N 29°44' W 095°08'0 0.0
2017-Oct-11 21:00N 29°44' W 095°08'0 0.0
2017-Oct-11 20:28N 29°44' W 095°08'0 0.0
2017-Oct-11 20:00N 29°44' W 095°08'0 0.0
2017-Oct-11 19:27N 29°44' W 095°08'0 0.0
2017-Oct-11 18:57N 29°44' W 095°08'0 0.0
2017-Oct-11 18:30N 29°44' W 095°08'0 0.0
2017-Oct-11 17:59N 29°44' W 095°08'0 0.0
2017-Oct-11 17:30N 29°44' W 095°08'0 0.0
2017-Oct-11 17:00N 29°44' W 095°08'0 0.0
2017-Oct-10 23:59N 29°44' W 095°08'0 0.0
2017-Oct-10 23:30N 29°44' W 095°08'0 0.0
2017-Oct-10 23:00N 29°44' W 095°08'0 0.0
2017-Oct-10 22:30N 29°44' W 095°08'0 0.0
2017-Oct-10 21:59N 29°44' W 095°08'0 0.0
2017-Oct-10 21:30N 29°44' W 095°08'0 0.0
2017-Oct-10 20:58N 29°44' W 095°08'0 0.0
2017-Oct-10 20:30N 29°44' W 095°08'0 0.0
2017-Oct-10 19:59N 29°44' W 095°08'0 0.0
2017-Oct-10 19:30N 29°44' W 095°08'0 0.0
2017-Oct-10 19:00N 29°44' W 095°08'0 0.0
2017-Oct-10 18:30N 29°44' W 095°08'0 0.0
2017-Oct-10 18:00N 29°44' W 095°08'0 0.0
2017-Oct-10 17:29N 29°44' W 095°08'0 0.0
2017-Oct-10 17:00N 29°44' W 095°08'0 0.0
2017-Oct-10 16:31N 29°44' W 095°08'0 0.0
2017-Oct-10 16:01N 29°44' W 095°08'0 0.0
2017-Oct-10 15:30N 29°44' W 095°08'0 0.0
2017-Oct-10 15:00N 29°44' W 095°08'0 0.0
2017-Oct-10 14:00N 29°44' W 095°08'0 0.0
2017-Oct-10 13:30N 29°44' W 095°08'0 0.0
2017-Oct-10 12:59N 29°44' W 095°08'0 0.0
2017-Oct-10 12:30N 29°44' W 095°08'1 1.6
2017-Oct-10 11:45N 29°44' W 095°07'1 1.8
2017-Oct-10 11:12N 29°45' W 095°06'2 0.1
2017-Oct-09 17:16N 29°44' W 095°08'0 0.2
2017-Oct-09 17:01N 29°44' W 095°08'0 0.0
2017-Oct-09 16:30N 29°44' W 095°08'0 0.0
2017-Oct-09 16:00N 29°44' W 095°08'0 0.0
2017-Oct-09 15:30N 29°44' W 095°08'0 0.0
2017-Oct-09 15:00N 29°44' W 095°08'0 0.0
2017-Oct-09 14:30N 29°44' W 095°08'0 0.0
2017-Oct-09 14:01N 29°44' W 095°08'0 0.0
2017-Oct-09 13:31N 29°44' W 095°08'0 0.0
2017-Oct-09 13:00N 29°44' W 095°08'0 0.0
2017-Oct-09 12:30N 29°44' W 095°08'0 0.0
2017-Oct-09 12:00N 29°44' W 095°08'0 0.0
2017-Oct-09 11:30N 29°44' W 095°08'0 0.0
2017-Oct-09 11:00N 29°44' W 095°08'0 0.0
2017-Oct-09 10:27N 29°44' W 095°08'0 0.0
2017-Oct-09 09:53N 29°44' W 095°08'0 0.0
2017-Oct-09 09:21N 29°44' W 095°08'0 0.0
2017-Oct-09 07:19N 29°44' W 095°08'0 0.1
2017-Oct-09 06:59N 29°44' W 095°08'0 0.0
2017-Oct-09 06:30N 29°44' W 095°08'0 0.0
2017-Oct-09 06:00N 29°44' W 095°08'0 0.0
2017-Oct-09 05:30N 29°44' W 095°08'0 0.0
2017-Oct-09 05:01N 29°44' W 095°08'0 0.0
2017-Oct-09 04:30N 29°44' W 095°08'0 0.0
2017-Oct-09 04:01N 29°44' W 095°08'2 0.2
2017-Oct-08 17:38N 29°45' W 095°06'1 7.5
2017-Oct-08 17:29N 29°44' W 095°07'1 1.4
2017-Oct-08 17:00N 29°44' W 095°08'0 0.0
2017-Oct-07 18:44N 29°44' W 095°08'0 1.8
2017-Oct-07 18:31N 29°44' W 095°08'0 0.1
2017-Oct-07 18:00N 29°44' W 095°08'0 0.1
2017-Oct-07 17:30N 29°44' W 095°08'0 0.0
2017-Oct-07 17:00N 29°44' W 095°08'0 0.0
2017-Oct-07 16:31N 29°44' W 095°08'0 0.1
2017-Oct-07 15:58N 29°44' W 095°08'2 2.1
2017-Oct-07 14:58N 29°45' W 095°06'2 0.0
2017-Oct-05 23:05N 29°44' W 095°08'0 2.5
2017-Oct-05 23:01N 29°44' W 095°08'0 0.1
2017-Oct-05 22:31N 29°44' W 095°08'0 0.0
2017-Oct-05 22:00N 29°44' W 095°08'0 0.0
2017-Oct-05 21:31N 29°44' W 095°08'0 0.0
2017-Oct-05 21:00N 29°44' W 095°08'  
Track history (hours):
 
Tides and Currents Weather Stations Pressure Air Temp Water Temp Dewpoint Dewpoint Depression Visibility Wind Speed Wind Dir Waves Ship Positions

Joseph F. Morrison

Owner: Blessey Enterprises, Inc., harahan, LA. More information available from US FCC via Universal Licensing System and Coast Guard Vessel Documentation Center.

Last reported at 2017-Oct-15 20:40 UTC. Time now 2017-Oct-17 03:55 UTC.
Position N 29°32' W 094°54'.

Length 84 m; draft 3 m.

Type: Towing. MMSI: 367350190.

Date/timePositionNaut miles runAvg speedWind from/ knotsBaromVisibWave heightAir tempDewpointWater temp
2017-Oct-15 20:40N 29°32' W 094°54'1 7.6
2017-Oct-15 20:30N 29°33' W 094°54'4 7.5
2017-Oct-15 20:01N 29°36' W 094°57'4 7.6
2017-Oct-15 19:30N 29°39' W 094°58'4 7.4
2017-Oct-15 19:00N 29°42' W 095°01'3 6.6
2017-Oct-15 18:30N 29°45' W 095°04'2 0.1
2017-Oct-14 13:13N 29°46' W 095°05'0 0.0
2017-Oct-14 13:00N 29°46' W 095°05'0 0.0
2017-Oct-14 12:30N 29°46' W 095°05'0 0.0
2017-Oct-14 12:00N 29°46' W 095°05'0 0.0
2017-Oct-14 11:28N 29°46' W 095°05'0 0.0
2017-Oct-14 11:00N 29°46' W 095°05'0 0.0
2017-Oct-14 10:19N 29°46' W 095°05'0 0.0
2017-Oct-14 09:58N 29°46' W 095°05'0 0.0
2017-Oct-14 09:30N 29°46' W 095°05'0 0.0
2017-Oct-14 08:59N 29°46' W 095°05'0 0.0
2017-Oct-14 08:27N 29°46' W 095°05'0 0.0
2017-Oct-14 07:46N 29°46' W 095°05'0 0.0
2017-Oct-14 07:29N 29°46' W 095°05'0 0.0
2017-Oct-14 06:57N 29°46' W 095°05'0 0.0
2017-Oct-14 06:29N 29°46' W 095°05'0 0.0
2017-Oct-14 06:00N 29°46' W 095°05'0 0.0
2017-Oct-14 05:29N 29°46' W 095°05'0 0.0
2017-Oct-14 05:00N 29°46' W 095°05'0 0.0
2017-Oct-14 03:52N 29°46' W 095°05'4 0.1
2017-Oct-12 15:57N 29°44' W 095°08'0 0.5
2017-Oct-12 15:30N 29°44' W 095°08'0 0.0
2017-Oct-12 15:00N 29°44' W 095°08'0 0.0
2017-Oct-12 14:31N 29°44' W 095°08'0 0.0
2017-Oct-12 13:59N 29°44' W 095°08'0 0.0
2017-Oct-12 13:31N 29°44' W 095°08'0 0.0
2017-Oct-12 13:00N 29°44' W 095°08'0 0.0
2017-Oct-12 12:30N 29°44' W 095°08'0 0.0
2017-Oct-12 12:00N 29°44' W 095°08'0 0.0
2017-Oct-12 11:30N 29°44' W 095°08'0 0.0
2017-Oct-12 11:00N 29°44' W 095°08'0 0.0
2017-Oct-12 10:30N 29°44' W 095°08'0 0.0
2017-Oct-12 10:00N 29°44' W 095°08'0 0.0
2017-Oct-12 09:29N 29°44' W 095°08'0 0.0
2017-Oct-12 09:00N 29°44' W 095°08'0 0.0
2017-Oct-12 08:31N 29°44' W 095°08'0 0.0
2017-Oct-12 08:00N 29°44' W 095°08'0 0.0
2017-Oct-12 07:30N 29°44' W 095°08'0 0.0
2017-Oct-12 07:00N 29°44' W 095°08'0 0.0
2017-Oct-12 06:31N 29°44' W 095°08'0 0.0
2017-Oct-12 06:00N 29°44' W 095°08'0 0.0
2017-Oct-12 05:30N 29°44' W 095°08'0 0.0
2017-Oct-12 05:00N 29°44' W 095°08'0 0.0
2017-Oct-12 04:30N 29°44' W 095°08'0 0.0
2017-Oct-12 04:00N 29°44' W 095°08'0 0.0
2017-Oct-12 03:30N 29°44' W 095°08'0 0.0
2017-Oct-12 03:01N 29°44' W 095°08'0 0.0
2017-Oct-12 02:30N 29°44' W 095°08'0 0.0
2017-Oct-12 02:00N 29°44' W 095°08'0 0.0
2017-Oct-12 01:31N 29°44' W 095°08'0 0.0
2017-Oct-12 01:01N 29°44' W 095°08'0 0.0
2017-Oct-12 00:31N 29°44' W 095°08'0 0.0
2017-Oct-12 00:01N 29°44' W 095°08'0 0.0
2017-Oct-11 23:30N 29°44' W 095°08'0 0.0
2017-Oct-11 23:00N 29°44' W 095°08'0 0.0
2017-Oct-11 22:30N 29°44' W 095°08'0 0.0
2017-Oct-11 22:00N 29°44' W 095°08'0 0.0
2017-Oct-11 21:30N 29°44' W 095°08'0 0.0
2017-Oct-11 21:00N 29°44' W 095°08'0 0.0
2017-Oct-11 20:28N 29°44' W 095°08'0 0.0
2017-Oct-11 20:00N 29°44' W 095°08'0 0.0
2017-Oct-11 19:27N 29°44' W 095°08'0 0.0
2017-Oct-11 18:57N 29°44' W 095°08'0 0.0
2017-Oct-11 18:30N 29°44' W 095°08'0 0.0
2017-Oct-11 17:59N 29°44' W 095°08'0 0.0
2017-Oct-11 17:30N 29°44' W 095°08'0 0.0
2017-Oct-11 17:00N 29°44' W 095°08'0 0.0
2017-Oct-10 23:59N 29°44' W 095°08'0 0.0
2017-Oct-10 23:30N 29°44' W 095°08'0 0.0
2017-Oct-10 23:00N 29°44' W 095°08'0 0.0
2017-Oct-10 22:30N 29°44' W 095°08'0 0.0
2017-Oct-10 21:59N 29°44' W 095°08'0 0.0
2017-Oct-10 21:30N 29°44' W 095°08'0 0.0
2017-Oct-10 20:58N 29°44' W 095°08'0 0.0
2017-Oct-10 20:30N 29°44' W 095°08'0 0.0
2017-Oct-10 19:59N 29°44' W 095°08'0 0.0
2017-Oct-10 19:30N 29°44' W 095°08'0 0.0
2017-Oct-10 19:00N 29°44' W 095°08'0 0.0
2017-Oct-10 18:30N 29°44' W 095°08'0 0.0
2017-Oct-10 18:00N 29°44' W 095°08'0 0.0
2017-Oct-10 17:29N 29°44' W 095°08'0 0.0
2017-Oct-10 17:00N 29°44' W 095°08'0 0.0
2017-Oct-10 16:31N 29°44' W 095°08'0 0.0
2017-Oct-10 16:01N 29°44' W 095°08'0 0.0
2017-Oct-10 15:30N 29°44' W 095°08'0 0.0
2017-Oct-10 15:00N 29°44' W 095°08'0 0.0
2017-Oct-10 14:00N 29°44' W 095°08'0 0.0
2017-Oct-10 13:30N 29°44' W 095°08'0 0.0
2017-Oct-10 12:59N 29°44' W 095°08'0 0.0
2017-Oct-10 12:30N 29°44' W 095°08'1 1.6
2017-Oct-10 11:45N 29°44' W 095°07'1 1.8
2017-Oct-10 11:12N 29°45' W 095°06'2 0.1
2017-Oct-09 17:16N 29°44' W 095°08'0 0.2
2017-Oct-09 17:01N 29°44' W 095°08'0 0.0
2017-Oct-09 16:30N 29°44' W 095°08'0 0.0
2017-Oct-09 16:00N 29°44' W 095°08'0 0.0
2017-Oct-09 15:30N 29°44' W 095°08'0 0.0
2017-Oct-09 15:00N 29°44' W 095°08'0 0.0
2017-Oct-09 14:30N 29°44' W 095°08'0 0.0
2017-Oct-09 14:01N 29°44' W 095°08'0 0.0
2017-Oct-09 13:31N 29°44' W 095°08'0 0.0
2017-Oct-09 13:00N 29°44' W 095°08'0 0.0
2017-Oct-09 12:30N 29°44' W 095°08'0 0.0
2017-Oct-09 12:00N 29°44' W 095°08'0 0.0
2017-Oct-09 11:30N 29°44' W 095°08'0 0.0
2017-Oct-09 11:00N 29°44' W 095°08'0 0.0
2017-Oct-09 10:27N 29°44' W 095°08'0 0.0
2017-Oct-09 09:53N 29°44' W 095°08'0 0.0
2017-Oct-09 09:21N 29°44' W 095°08'0 0.0
2017-Oct-09 07:19N 29°44' W 095°08'0 0.1
2017-Oct-09 06:59N 29°44' W 095°08'0 0.0
2017-Oct-09 06:30N 29°44' W 095°08'0 0.0
2017-Oct-09 06:00N 29°44' W 095°08'0 0.0
2017-Oct-09 05:30N 29°44' W 095°08'0 0.0
2017-Oct-09 05:01N 29°44' W 095°08'0 0.0
2017-Oct-09 04:30N 29°44' W 095°08'0 0.0
2017-Oct-09 04:01N 29°44' W 095°08'2 0.2
2017-Oct-08 17:38N 29°45' W 095°06'1 7.5
2017-Oct-08 17:29N 29°44' W 095°07'1 1.4
2017-Oct-08 17:00N 29°44' W 095°08'0 0.0
2017-Oct-07 18:44N 29°44' W 095°08'0 1.8
2017-Oct-07 18:31N 29°44' W 095°08'0 0.1
2017-Oct-07 18:00N 29°44' W 095°08'0 0.1
2017-Oct-07 17:30N 29°44' W 095°08'0 0.0
2017-Oct-07 17:00N 29°44' W 095°08'0 0.0
2017-Oct-07 16:31N 29°44' W 095°08'0 0.1
2017-Oct-07 15:58N 29°44' W 095°08'2 2.1
2017-Oct-07 14:58N 29°45' W 095°06'2 0.0
2017-Oct-05 23:05N 29°44' W 095°08'0 2.5
2017-Oct-05 23:01N 29°44' W 095°08'0 0.1
2017-Oct-05 22:31N 29°44' W 095°08'0 0.0
2017-Oct-05 22:00N 29°44' W 095°08'0 0.0
2017-Oct-05 21:31N 29°44' W 095°08'0 0.0
2017-Oct-05 21:00N 29°44' W 095°08'  

Dump ship's entire track history